sensor_id;sensor_type;location;lat;lon;timestamp;temperature;humidity
14475;DHT22;7323;50.848;4.334;2022-10-04T00:00:41;13.20;85.60
14475;DHT22;7323;50.848;4.334;2022-10-04T00:05:33;13.10;89.00
14475;DHT22;7323;50.848;4.334;2022-10-04T00:10:48;13.20;90.90
14475;DHT22;7323;50.848;4.334;2022-10-04T00:13:24;13.20;89.70
14475;DHT22;7323;50.848;4.334;2022-10-04T00:15:51;13.20;90.40
14475;DHT22;7323;50.848;4.334;2022-10-04T00:18:26;13.10;90.50
14475;DHT22;7323;50.848;4.334;2022-10-04T00:23:39;13.20;90.20
14475;DHT22;7323;50.848;4.334;2022-10-04T00:26:13;13.30;89.10
14475;DHT22;7323;50.848;4.334;2022-10-04T00:28:45;13.30;87.60
14475;DHT22;7323;50.848;4.334;2022-10-04T00:31:21;13.50;85.50
14475;DHT22;7323;50.848;4.334;2022-10-04T00:33:57;13.70;74.30
14475;DHT22;7323;50.848;4.334;2022-10-04T00:36:54;13.70;67.30
14475;DHT22;7323;50.848;4.334;2022-10-04T00:39:41;13.50;71.20
14475;DHT22;7323;50.848;4.334;2022-10-04T00:48:08;13.30;83.90
14475;DHT22;7323;50.848;4.334;2022-10-04T00:50:47;13.20;83.40
14475;DHT22;7323;50.848;4.334;2022-10-04T00:55:58;13.40;79.00
14475;DHT22;7323;50.848;4.334;2022-10-04T00:58:33;13.50;72.80
14475;DHT22;7323;50.848;4.334;2022-10-04T01:01:00;13.20;74.70
14475;DHT22;7323;50.848;4.334;2022-10-04T01:03:38;13.10;81.70
14475;DHT22;7323;50.848;4.334;2022-10-04T01:06:07;13.10;86.70
14475;DHT22;7323;50.848;4.334;2022-10-04T01:08:50;13.00;89.70
14475;DHT22;7323;50.848;4.334;2022-10-04T01:11:24;12.90;90.30
14475;DHT22;7323;50.848;4.334;2022-10-04T01:14:09;12.90;91.50
14475;DHT22;7323;50.848;4.334;2022-10-04T01:16:37;13.10;91.70
14475;DHT22;7323;50.848;4.334;2022-10-04T01:22:09;13.10;91.40
14475;DHT22;7323;50.848;4.334;2022-10-04T01:24:43;13.10;88.20
14475;DHT22;7323;50.848;4.334;2022-10-04T01:30:00;13.20;80.00
14475;DHT22;7323;50.848;4.334;2022-10-04T01:32:26;13.20;81.80
14475;DHT22;7323;50.848;4.334;2022-10-04T01:34:54;13.10;82.40
14475;DHT22;7323;50.848;4.334;2022-10-04T01:37:20;13.00;84.00
14475;DHT22;7323;50.848;4.334;2022-10-04T01:39:46;12.90;88.70
14475;DHT22;7323;50.848;4.334;2022-10-04T01:42:31;12.80;91.90
14475;DHT22;7323;50.848;4.334;2022-10-04T01:45:09;12.80;93.10
14475;DHT22;7323;50.848;4.334;2022-10-04T01:47:42;12.70;94.10
14475;DHT22;7323;50.848;4.334;2022-10-04T01:50:30;12.80;94.70
14475;DHT22;7323;50.848;4.334;2022-10-04T01:56:25;13.00;89.50
14475;DHT22;7323;50.848;4.334;2022-10-04T01:59:03;13.10;85.50
14475;DHT22;7323;50.848;4.334;2022-10-04T02:01:53;13.00;85.80
14475;DHT22;7323;50.848;4.334;2022-10-04T02:04:41;12.90;90.10
14475;DHT22;7323;50.848;4.334;2022-10-04T02:07:13;12.80;92.30
14475;DHT22;7323;50.848;4.334;2022-10-04T02:09:45;12.60;93.90
14475;DHT22;7323;50.848;4.334;2022-10-04T02:12:17;12.60;95.80
14475;DHT22;7323;50.848;4.334;2022-10-04T02:14:48;12.50;96.50
14475;DHT22;7323;50.848;4.334;2022-10-04T02:17:33;12.60;96.20
14475;DHT22;7323;50.848;4.334;2022-10-04T02:20:02;12.70;95.20
14475;DHT22;7323;50.848;4.334;2022-10-04T02:22:34;12.60;95.60
14475;DHT22;7323;50.848;4.334;2022-10-04T02:25:00;12.50;95.60
14475;DHT22;7323;50.848;4.334;2022-10-04T02:27:27;12.50;95.80
14475;DHT22;7323;50.848;4.334;2022-10-04T02:30:03;12.60;96.60
14475;DHT22;7323;50.848;4.334;2022-10-04T02:32:31;12.60;96.00
14475;DHT22;7323;50.848;4.334;2022-10-04T02:35:16;12.50;96.10
14475;DHT22;7323;50.848;4.334;2022-10-04T02:37:43;12.70;93.90
14475;DHT22;7323;50.848;4.334;2022-10-04T02:40:15;12.70;92.10
14475;DHT22;7323;50.848;4.334;2022-10-04T02:42:55;12.70;90.10
14475;DHT22;7323;50.848;4.334;2022-10-04T02:51:36;12.80;86.70
14475;DHT22;7323;50.848;4.334;2022-10-04T02:54:32;12.70;88.60
14475;DHT22;7323;50.848;4.334;2022-10-04T02:57:04;12.60;88.40
14475;DHT22;7323;50.848;4.334;2022-10-04T02:59:32;12.60;90.00
14475;DHT22;7323;50.848;4.334;2022-10-04T03:02:22;12.50;91.50
14475;DHT22;7323;50.848;4.334;2022-10-04T03:04:48;12.50;92.60
14475;DHT22;7323;50.848;4.334;2022-10-04T03:07:16;12.50;93.50
14475;DHT22;7323;50.848;4.334;2022-10-04T03:09:42;12.60;93.70
14475;DHT22;7323;50.848;4.334;2022-10-04T03:12:10;12.50;93.60
14475;DHT22;7323;50.848;4.334;2022-10-04T03:14:38;12.70;94.00
14475;DHT22;7323;50.848;4.334;2022-10-04T03:17:04;12.60;93.40
14475;DHT22;7323;50.848;4.334;2022-10-04T03:19:32;12.50;93.30
14475;DHT22;7323;50.848;4.334;2022-10-04T03:22:08;12.50;93.40
14475;DHT22;7323;50.848;4.334;2022-10-04T03:24:46;12.40;93.70
14475;DHT22;7323;50.848;4.334;2022-10-04T03:27:21;12.30;94.00
14475;DHT22;7323;50.848;4.334;2022-10-04T03:29:49;12.40;94.80
14475;DHT22;7323;50.848;4.334;2022-10-04T03:32:16;12.40;93.80
14475;DHT22;7323;50.848;4.334;2022-10-04T03:35:03;12.40;92.70
14475;DHT22;7323;50.848;4.334;2022-10-04T03:37:35;12.40;92.90
14475;DHT22;7323;50.848;4.334;2022-10-04T03:40:07;12.40;92.90
14475;DHT22;7323;50.848;4.334;2022-10-04T03:42:35;12.30;94.00
14475;DHT22;7323;50.848;4.334;2022-10-04T03:45:16;12.30;94.80
14475;DHT22;7323;50.848;4.334;2022-10-04T03:47:45;12.30;94.60
14475;DHT22;7323;50.848;4.334;2022-10-04T03:52:54;12.50;91.20
14475;DHT22;7323;50.848;4.334;2022-10-04T03:55:24;12.60;86.50
14475;DHT22;7323;50.848;4.334;2022-10-04T03:57:52;12.60;84.00
14475;DHT22;7323;50.848;4.334;2022-10-04T04:00:18;12.60;84.40
14475;DHT22;7323;50.848;4.334;2022-10-04T04:02:59;12.50;86.20
14475;DHT22;7323;50.848;4.334;2022-10-04T04:05:43;12.50;87.60
14475;DHT22;7323;50.848;4.334;2022-10-04T04:10:51;12.30;89.10
14475;DHT22;7323;50.848;4.334;2022-10-04T04:15:50;11.90;95.60
14475;DHT22;7323;50.848;4.334;2022-10-04T04:18:23;11.90;97.60
14475;DHT22;7323;50.848;4.334;2022-10-04T04:20:52;11.90;98.40
14475;DHT22;7323;50.848;4.334;2022-10-04T04:23:30;12.00;96.90
14475;DHT22;7323;50.848;4.334;2022-10-04T04:26:12;12.10;95.90
14475;DHT22;7323;50.848;4.334;2022-10-04T04:34:04;12.10;94.30
14475;DHT22;7323;50.848;4.334;2022-10-04T04:36:40;12.10;94.20
14475;DHT22;7323;50.848;4.334;2022-10-04T04:39:21;11.90;95.10
14475;DHT22;7323;50.848;4.334;2022-10-04T04:42:00;11.90;96.20
14475;DHT22;7323;50.848;4.334;2022-10-04T04:44:26;12.10;94.50
14475;DHT22;7323;50.848;4.334;2022-10-04T04:46:53;12.10;94.20
14475;DHT22;7323;50.848;4.334;2022-10-04T04:49:21;11.80;95.50
14475;DHT22;7323;50.848;4.334;2022-10-04T04:51:50;11.70;97.80
14475;DHT22;7323;50.848;4.334;2022-10-04T04:54:22;11.60;99.50
14475;DHT22;7323;50.848;4.334;2022-10-04T04:56:51;11.50;99.90
14475;DHT22;7323;50.848;4.334;2022-10-04T04:59:19;11.50;99.90
14475;DHT22;7323;50.848;4.334;2022-10-04T05:01:48;11.40;99.90
14475;DHT22;7323;50.848;4.334;2022-10-04T05:04:16;11.40;99.90
14475;DHT22;7323;50.848;4.334;2022-10-04T05:06:45;11.30;99.90
14475;DHT22;7323;50.848;4.334;2022-10-04T05:09:44;11.30;99.90
14475;DHT22;7323;50.848;4.334;2022-10-04T05:12:16;11.40;99.90
14475;DHT22;7323;50.848;4.334;2022-10-04T05:14:51;11.30;99.90
14475;DHT22;7323;50.848;4.334;2022-10-04T05:17:23;11.30;99.90
14475;DHT22;7323;50.848;4.334;2022-10-04T05:19:50;11.20;99.90
14475;DHT22;7323;50.848;4.334;2022-10-04T05:22:19;11.30;99.90
14475;DHT22;7323;50.848;4.334;2022-10-04T05:24:51;11.20;99.90
14475;DHT22;7323;50.848;4.334;2022-10-04T05:35:19;11.30;99.90
14475;DHT22;7323;50.848;4.334;2022-10-04T05:38:01;11.50;99.90
14475;DHT22;7323;50.848;4.334;2022-10-04T05:40:47;11.70;99.90
14475;DHT22;7323;50.848;4.334;2022-10-04T05:43:36;11.90;99.90
14475;DHT22;7323;50.848;4.334;2022-10-04T05:46:22;12.00;95.60
14475;DHT22;7323;50.848;4.334;2022-10-04T05:49:00;12.00;92.30
14475;DHT22;7323;50.848;4.334;2022-10-04T05:51:33;11.90;92.00
14475;DHT22;7323;50.848;4.334;2022-10-04T05:54:08;11.80;92.30
14475;DHT22;7323;50.848;4.334;2022-10-04T06:00:04;11.60;95.30
14475;DHT22;7323;50.848;4.334;2022-10-04T06:08:03;11.40;97.70
14475;DHT22;7323;50.848;4.334;2022-10-04T06:10:58;11.50;98.80
14475;DHT22;7323;50.848;4.334;2022-10-04T06:14:12;11.50;99.40
14475;DHT22;7323;50.848;4.334;2022-10-04T06:22:55;11.80;97.90
14475;DHT22;7323;50.848;4.334;2022-10-04T06:28:19;11.90;95.90
14475;DHT22;7323;50.848;4.334;2022-10-04T06:37:00;12.10;92.60
14475;DHT22;7323;50.848;4.334;2022-10-04T06:42:59;12.10;91.30
14475;DHT22;7323;50.848;4.334;2022-10-04T06:53:58;12.10;83.90
14475;DHT22;7323;50.848;4.334;2022-10-04T06:57:00;12.10;85.70
14475;DHT22;7323;50.848;4.334;2022-10-04T07:02:20;11.90;89.90
14475;DHT22;7323;50.848;4.334;2022-10-04T07:07:52;12.00;90.70
14475;DHT22;7323;50.848;4.334;2022-10-04T07:10:51;12.00;90.60
14475;DHT22;7323;50.848;4.334;2022-10-04T07:13:31;12.10;90.50
14475;DHT22;7323;50.848;4.334;2022-10-04T07:16:10;12.30;89.70
14475;DHT22;7323;50.848;4.334;2022-10-04T07:21:37;12.40;83.10
14475;DHT22;7323;50.848;4.334;2022-10-04T07:24:10;12.80;76.40
14475;DHT22;7323;50.848;4.334;2022-10-04T07:26:45;12.70;68.60
14475;DHT22;7323;50.848;4.334;2022-10-04T07:29:25;12.70;65.40
14475;DHT22;7323;50.848;4.334;2022-10-04T07:37:58;12.60;66.90
14475;DHT22;7323;50.848;4.334;2022-10-04T07:40:32;12.70;65.90
14475;DHT22;7323;50.848;4.334;2022-10-04T07:43:09;12.60;65.40
14475;DHT22;7323;50.848;4.334;2022-10-04T07:45:40;12.70;67.50
14475;DHT22;7323;50.848;4.334;2022-10-04T07:48:16;12.80;67.40
14475;DHT22;7323;50.848;4.334;2022-10-04T07:51:13;12.90;67.50
14475;DHT22;7323;50.848;4.334;2022-10-04T07:53:54;13.10;65.00
14475;DHT22;7323;50.848;4.334;2022-10-04T07:59:39;13.30;54.40
14475;DHT22;7323;50.848;4.334;2022-10-04T08:02:26;13.30;53.50
14475;DHT22;7323;50.848;4.334;2022-10-04T08:08:26;13.60;46.70
14475;DHT22;7323;50.848;4.334;2022-10-04T08:11:19;13.70;45.30
14475;DHT22;7323;50.848;4.334;2022-10-04T08:32:32;13.80;45.90
14475;DHT22;7323;50.848;4.334;2022-10-04T08:35:31;13.90;40.90
14475;DHT22;7323;50.848;4.334;2022-10-04T09:00:24;14.60;25.30
14475;DHT22;7323;50.848;4.334;2022-10-04T09:12:18;15.10;9.50
14475;DHT22;7323;50.848;4.334;2022-10-04T09:26:22;15.50;1.00
14475;DHT22;7323;50.848;4.334;2022-10-04T10:04:44;16.30;1.00
14475;DHT22;7323;50.848;4.334;2022-10-04T10:07:27;16.40;1.00
14475;DHT22;7323;50.848;4.334;2022-10-04T10:14:12;16.30;1.00
14475;DHT22;7323;50.848;4.334;2022-10-04T10:30:50;16.90;1.00
14475;DHT22;7323;50.848;4.334;2022-10-04T10:36:14;17.20;1.00
14475;DHT22;7323;50.848;4.334;2022-10-04T10:38:47;17.30;1.00
14475;DHT22;7323;50.848;4.334;2022-10-04T10:52:31;17.70;1.00
14475;DHT22;7323;50.848;4.334;2022-10-04T10:55:28;17.70;1.00
14475;DHT22;7323;50.848;4.334;2022-10-04T11:09:44;17.70;1.00
14475;DHT22;7323;50.848;4.334;2022-10-04T11:21:21;18.00;1.00
14475;DHT22;7323;50.848;4.334;2022-10-04T11:27:18;17.90;1.00
14475;DHT22;7323;50.848;4.334;2022-10-04T11:30:03;18.00;1.00
14475;DHT22;7323;50.848;4.334;2022-10-04T11:38:27;18.20;1.00
14475;DHT22;7323;50.848;4.334;2022-10-04T11:41:24;18.30;1.00
14475;DHT22;7323;50.848;4.334;2022-10-04T11:49:53;18.60;1.00
14475;DHT22;7323;50.848;4.334;2022-10-04T11:55:21;18.40;1.00
14475;DHT22;7323;50.848;4.334;2022-10-04T11:57:53;18.40;1.00
14475;DHT22;7323;50.848;4.334;2022-10-04T12:00:23;18.40;1.00
14475;DHT22;7323;50.848;4.334;2022-10-04T12:20:17;18.90;1.00
14475;DHT22;7323;50.848;4.334;2022-10-04T12:33:29;19.10;1.00
14475;DHT22;7323;50.848;4.334;2022-10-04T12:49:13;19.40;1.00
14475;DHT22;7323;50.848;4.334;2022-10-04T12:58:02;19.30;1.00
14475;DHT22;7323;50.848;4.334;2022-10-04T13:00:35;19.30;1.00
14475;DHT22;7323;50.848;4.334;2022-10-04T13:03:40;19.40;1.00
14475;DHT22;7323;50.848;4.334;2022-10-04T13:09:55;19.30;1.00
14475;DHT22;7323;50.848;4.334;2022-10-04T13:15:27;19.70;1.00
14475;DHT22;7323;50.848;4.334;2022-10-04T13:21:01;19.90;1.00
14475;DHT22;7323;50.848;4.334;2022-10-04T13:23:55;19.90;1.00
14475;DHT22;7323;50.848;4.334;2022-10-04T13:26:42;19.80;1.00
14475;DHT22;7323;50.848;4.334;2022-10-04T13:29:22;19.80;1.00
14475;DHT22;7323;50.848;4.334;2022-10-04T13:34:55;20.10;99.90
14475;DHT22;7323;50.848;4.334;2022-10-04T13:37:53;20.30;99.90
14475;DHT22;7323;50.848;4.334;2022-10-04T13:49:11;20.10;99.90
14475;DHT22;7323;50.848;4.334;2022-10-04T14:04:19;20.40;99.90
14475;DHT22;7323;50.848;4.334;2022-10-04T14:12:18;20.60;99.90
14475;DHT22;7323;50.848;4.334;2022-10-04T14:18:16;20.50;99.90
14475;DHT22;7323;50.848;4.334;2022-10-04T14:29:57;20.20;99.90
14475;DHT22;7323;50.848;4.334;2022-10-04T14:54:57;21.20;99.90
14475;DHT22;7323;50.848;4.334;2022-10-04T15:07:17;21.90;1.00
14475;DHT22;7323;50.848;4.334;2022-10-04T15:10:15;22.00;1.00
14475;DHT22;7323;50.848;4.334;2022-10-04T15:13:01;21.50;1.00
14475;DHT22;7323;50.848;4.334;2022-10-04T15:15:32;21.40;9.20
14475;DHT22;7323;50.848;4.334;2022-10-04T15:21:01;21.20;99.90
14475;DHT22;7323;50.848;4.334;2022-10-04T15:23:48;21.40;99.90
14475;DHT22;7323;50.848;4.334;2022-10-04T15:42:35;20.20;99.90
14475;DHT22;7323;50.848;4.334;2022-10-04T16:07:13;20.30;99.90
14475;DHT22;7323;50.848;4.334;2022-10-04T16:15:41;20.00;1.00
14475;DHT22;7323;50.848;4.334;2022-10-04T16:23:44;19.50;1.00
14475;DHT22;7323;50.848;4.334;2022-10-04T16:32:10;19.00;1.00
14475;DHT22;7323;50.848;4.334;2022-10-04T16:37:41;18.90;1.00
14475;DHT22;7323;50.848;4.334;2022-10-04T16:40:34;18.90;1.00
14475;DHT22;7323;50.848;4.334;2022-10-04T16:46:03;19.00;1.00
14475;DHT22;7323;50.848;4.334;2022-10-04T16:48:45;18.90;1.00
14475;DHT22;7323;50.848;4.334;2022-10-04T16:56:31;18.70;1.00
14475;DHT22;7323;50.848;4.334;2022-10-04T16:59:09;18.60;1.00
14475;DHT22;7323;50.848;4.334;2022-10-04T17:17:44;18.20;1.00
14475;DHT22;7323;50.848;4.334;2022-10-04T17:29:02;17.70;1.00
14475;DHT22;7323;50.848;4.334;2022-10-04T17:32:06;17.60;1.00
14475;DHT22;7323;50.848;4.334;2022-10-04T17:35:01;17.50;1.00
14475;DHT22;7323;50.848;4.334;2022-10-04T17:43:29;17.60;1.00
14475;DHT22;7323;50.848;4.334;2022-10-04T17:48:57;17.50;1.00
14475;DHT22;7323;50.848;4.334;2022-10-04T17:51:49;17.60;1.00
14475;DHT22;7323;50.848;4.334;2022-10-04T18:00:26;17.40;1.00
14475;DHT22;7323;50.848;4.334;2022-10-04T18:06:18;17.40;1.00
14475;DHT22;7323;50.848;4.334;2022-10-04T18:11:50;17.40;1.00
14475;DHT22;7323;50.848;4.334;2022-10-04T18:15:02;17.40;1.00
14475;DHT22;7323;50.848;4.334;2022-10-04T18:17:34;17.30;1.00
14475;DHT22;7323;50.848;4.334;2022-10-04T18:20:18;17.30;1.00
14475;DHT22;7323;50.848;4.334;2022-10-04T18:25:41;17.30;1.00
14475;DHT22;7323;50.848;4.334;2022-10-04T18:30:56;17.20;1.00
14475;DHT22;7323;50.848;4.334;2022-10-04T18:36:19;17.10;1.00
14475;DHT22;7323;50.848;4.334;2022-10-04T18:39:14;17.00;1.00
14475;DHT22;7323;50.848;4.334;2022-10-04T18:41:58;17.00;1.00
14475;DHT22;7323;50.848;4.334;2022-10-04T18:44:30;16.90;1.00
14475;DHT22;7323;50.848;4.334;2022-10-04T18:47:15;16.90;1.40
14475;DHT22;7323;50.848;4.334;2022-10-04T18:49:50;16.90;2.60
14475;DHT22;7323;50.848;4.334;2022-10-04T18:55:20;16.90;2.20
14475;DHT22;7323;50.848;4.334;2022-10-04T18:58:23;16.90;3.00
14475;DHT22;7323;50.848;4.334;2022-10-04T19:06:58;17.00;1.80
14475;DHT22;7323;50.848;4.334;2022-10-04T19:12:14;17.00;4.10
14475;DHT22;7323;50.848;4.334;2022-10-04T19:17:45;17.10;1.00
14475;DHT22;7323;50.848;4.334;2022-10-04T19:20:37;17.10;1.00
14475;DHT22;7323;50.848;4.334;2022-10-04T19:26:08;17.10;1.00
14475;DHT22;7323;50.848;4.334;2022-10-04T19:28:36;17.00;4.10
14475;DHT22;7323;50.848;4.334;2022-10-04T19:33:55;17.00;4.90
14475;DHT22;7323;50.848;4.334;2022-10-04T19:36:28;17.00;7.20
14475;DHT22;7323;50.848;4.334;2022-10-04T19:42:33;17.00;8.90
14475;DHT22;7323;50.848;4.334;2022-10-04T19:48:20;16.90;8.50
14475;DHT22;7323;50.848;4.334;2022-10-04T19:51:03;16.90;13.10
14475;DHT22;7323;50.848;4.334;2022-10-04T19:53:41;16.90;14.30
14475;DHT22;7323;50.848;4.334;2022-10-04T19:56:17;16.90;13.80
14475;DHT22;7323;50.848;4.334;2022-10-04T19:59:05;16.80;16.00
14475;DHT22;7323;50.848;4.334;2022-10-04T20:01:34;16.80;17.90
14475;DHT22;7323;50.848;4.334;2022-10-04T20:04:13;16.80;18.80
14475;DHT22;7323;50.848;4.334;2022-10-04T20:12:37;16.70;17.70
14475;DHT22;7323;50.848;4.334;2022-10-04T20:18:01;16.70;19.30
14475;DHT22;7323;50.848;4.334;2022-10-04T20:23:47;16.60;23.70
14475;DHT22;7323;50.848;4.334;2022-10-04T20:26:40;16.70;23.30
14475;DHT22;7323;50.848;4.334;2022-10-04T20:34:51;16.70;22.40
14475;DHT22;7323;50.848;4.334;2022-10-04T20:37:17;16.70;22.00
14475;DHT22;7323;50.848;4.334;2022-10-04T20:47:40;16.70;21.00
14475;DHT22;7323;50.848;4.334;2022-10-04T20:50:30;16.70;20.00
14475;DHT22;7323;50.848;4.334;2022-10-04T20:53:00;16.80;18.30
14475;DHT22;7323;50.848;4.334;2022-10-04T20:55:31;16.80;16.60
14475;DHT22;7323;50.848;4.334;2022-10-04T20:58:00;16.70;17.70
14475;DHT22;7323;50.848;4.334;2022-10-04T21:00:29;16.70;18.10
14475;DHT22;7323;50.848;4.334;2022-10-04T21:03:28;16.70;17.80
14475;DHT22;7323;50.848;4.334;2022-10-04T21:06:14;16.80;13.40
14475;DHT22;7323;50.848;4.334;2022-10-04T21:08:42;16.90;16.40
14475;DHT22;7323;50.848;4.334;2022-10-04T21:13:56;16.80;16.00
14475;DHT22;7323;50.848;4.334;2022-10-04T21:16:33;16.70;16.90
14475;DHT22;7323;50.848;4.334;2022-10-04T21:19:28;16.70;17.10
14475;DHT22;7323;50.848;4.334;2022-10-04T21:21:54;16.80;18.00
14475;DHT22;7323;50.848;4.334;2022-10-04T21:27:26;16.70;18.60
14475;DHT22;7323;50.848;4.334;2022-10-04T21:29:52;16.70;19.20
14475;DHT22;7323;50.848;4.334;2022-10-04T21:32:19;16.70;17.90
14475;DHT22;7323;50.848;4.334;2022-10-04T21:34:44;16.70;17.20
14475;DHT22;7323;50.848;4.334;2022-10-04T21:37:14;16.80;17.10
14475;DHT22;7323;50.848;4.334;2022-10-04T21:39:43;16.70;16.60
14475;DHT22;7323;50.848;4.334;2022-10-04T21:42:09;16.70;18.20
14475;DHT22;7323;50.848;4.334;2022-10-04T21:44:36;16.80;17.80
14475;DHT22;7323;50.848;4.334;2022-10-04T21:47:02;16.80;15.30
14475;DHT22;7323;50.848;4.334;2022-10-04T21:49:28;16.80;15.10
14475;DHT22;7323;50.848;4.334;2022-10-04T21:51:53;16.80;15.20
14475;DHT22;7323;50.848;4.334;2022-10-04T21:54:19;16.80;15.00
14475;DHT22;7323;50.848;4.334;2022-10-04T21:56:47;16.80;15.70
14475;DHT22;7323;50.848;4.334;2022-10-04T21:59:15;16.80;15.90
14475;DHT22;7323;50.848;4.334;2022-10-04T22:01:44;16.80;16.40
14475;DHT22;7323;50.848;4.334;2022-10-04T22:04:13;16.70;18.90
14475;DHT22;7323;50.848;4.334;2022-10-04T22:06:38;16.60;22.10
14475;DHT22;7323;50.848;4.334;2022-10-04T22:09:05;16.70;20.80
14475;DHT22;7323;50.848;4.334;2022-10-04T22:11:30;16.70;17.70
14475;DHT22;7323;50.848;4.334;2022-10-04T22:13:56;16.70;20.40
14475;DHT22;7323;50.848;4.334;2022-10-04T22:16:25;16.70;21.40
14475;DHT22;7323;50.848;4.334;2022-10-04T22:18:51;16.70;19.70
14475;DHT22;7323;50.848;4.334;2022-10-04T22:21:17;16.70;18.80
14475;DHT22;7323;50.848;4.334;2022-10-04T22:23:47;16.60;21.10
14475;DHT22;7323;50.848;4.334;2022-10-04T22:26:18;16.60;24.50
14475;DHT22;7323;50.848;4.334;2022-10-04T22:28:47;16.60;26.10
14475;DHT22;7323;50.848;4.334;2022-10-04T22:31:16;16.70;23.90
14475;DHT22;7323;50.848;4.334;2022-10-04T22:33:43;16.70;22.30
14475;DHT22;7323;50.848;4.334;2022-10-04T22:36:38;16.70;21.90
14475;DHT22;7323;50.848;4.334;2022-10-04T22:39:16;16.70;22.70
14475;DHT22;7323;50.848;4.334;2022-10-04T22:41:45;16.60;25.00
14475;DHT22;7323;50.848;4.334;2022-10-04T22:46:40;16.60;27.30
14475;DHT22;7323;50.848;4.334;2022-10-04T22:49:11;16.60;27.20
14475;DHT22;7323;50.848;4.334;2022-10-04T22:51:40;16.60;26.70
14475;DHT22;7323;50.848;4.334;2022-10-04T22:54:14;16.70;27.00
14475;DHT22;7323;50.848;4.334;2022-10-04T22:56:40;16.70;27.10
14475;DHT22;7323;50.848;4.334;2022-10-04T22:59:12;16.60;26.80
14475;DHT22;7323;50.848;4.334;2022-10-04T23:01:39;16.90;22.60
14475;DHT22;7323;50.848;4.334;2022-10-04T23:04:26;16.80;20.70
14475;DHT22;7323;50.848;4.334;2022-10-04T23:06:52;16.90;15.00
14475;DHT22;7323;50.848;4.334;2022-10-04T23:09:20;16.80;18.80
14475;DHT22;7323;50.848;4.334;2022-10-04T23:11:47;16.90;17.10
14475;DHT22;7323;50.848;4.334;2022-10-04T23:14:16;17.00;13.90
14475;DHT22;7323;50.848;4.334;2022-10-04T23:16:44;16.80;16.70
14475;DHT22;7323;50.848;4.334;2022-10-04T23:19:18;16.70;22.00
14475;DHT22;7323;50.848;4.334;2022-10-04T23:21:48;16.80;22.10
14475;DHT22;7323;50.848;4.334;2022-10-04T23:24:18;16.50;25.80
14475;DHT22;7323;50.848;4.334;2022-10-04T23:27:01;16.60;29.00
14475;DHT22;7323;50.848;4.334;2022-10-04T23:29:33;16.50;31.70
14475;DHT22;7323;50.848;4.334;2022-10-04T23:32:09;16.40;30.30
14475;DHT22;7323;50.848;4.334;2022-10-04T23:34:57;16.60;30.30
14475;DHT22;7323;50.848;4.334;2022-10-04T23:37:30;16.50;29.10
14475;DHT22;7323;50.848;4.334;2022-10-04T23:39:56;16.50;30.00
14475;DHT22;7323;50.848;4.334;2022-10-04T23:42:26;16.60;30.60
14475;DHT22;7323;50.848;4.334;2022-10-04T23:44:57;16.60;28.60
14475;DHT22;7323;50.848;4.334;2022-10-04T23:47:33;16.60;28.90
14475;DHT22;7323;50.848;4.334;2022-10-04T23:50:15;16.60;28.80
14475;DHT22;7323;50.848;4.334;2022-10-04T23:52:50;16.60;29.80
14475;DHT22;7323;50.848;4.334;2022-10-04T23:55:19;16.50;30.80
14475;DHT22;7323;50.848;4.334;2022-10-04T23:57:46;16.60;29.30
